sensor_id;sensor_type;location;lat;lon;timestamp;temperature;humidity
11650;DHT22;5881;48.522;7.682;2023-04-24T00:00:46;11.00;99.90
11650;DHT22;5881;48.522;7.682;2023-04-24T00:03:12;11.00;1.00
11650;DHT22;5881;48.522;7.682;2023-04-24T00:05:38;11.00;1.00
11650;DHT22;5881;48.522;7.682;2023-04-24T00:08:05;11.10;1.00
11650;DHT22;5881;48.522;7.682;2023-04-24T00:10:31;11.10;99.90
11650;DHT22;5881;48.522;7.682;2023-04-24T00:12:57;11.10;1.00
11650;DHT22;5881;48.522;7.682;2023-04-24T00:15:22;11.10;1.00
11650;DHT22;5881;48.522;7.682;2023-04-24T00:17:48;11.10;1.00
11650;DHT22;5881;48.522;7.682;2023-04-24T00:20:14;11.10;99.90
11650;DHT22;5881;48.522;7.682;2023-04-24T00:22:40;11.10;99.90
11650;DHT22;5881;48.522;7.682;2023-04-24T00:25:06;11.20;1.00
11650;DHT22;5881;48.522;7.682;2023-04-24T00:27:32;11.20;99.90
11650;DHT22;5881;48.522;7.682;2023-04-24T00:29:58;11.30;1.00
11650;DHT22;5881;48.522;7.682;2023-04-24T00:32:23;11.20;1.00
11650;DHT22;5881;48.522;7.682;2023-04-24T00:34:49;11.20;1.00
11650;DHT22;5881;48.522;7.682;2023-04-24T00:37:15;11.10;99.90
11650;DHT22;5881;48.522;7.682;2023-04-24T00:39:41;11.10;99.90
11650;DHT22;5881;48.522;7.682;2023-04-24T00:42:06;11.10;99.90
11650;DHT22;5881;48.522;7.682;2023-04-24T00:44:33;11.10;99.90
11650;DHT22;5881;48.522;7.682;2023-04-24T00:46:59;11.10;99.90
11650;DHT22;5881;48.522;7.682;2023-04-24T00:49:26;11.20;99.90
11650;DHT22;5881;48.522;7.682;2023-04-24T00:51:51;11.20;99.90
11650;DHT22;5881;48.522;7.682;2023-04-24T00:54:17;11.20;99.90
11650;DHT22;5881;48.522;7.682;2023-04-24T00:56:44;11.20;99.90
11650;DHT22;5881;48.522;7.682;2023-04-24T00:59:13;11.20;99.90
11650;DHT22;5881;48.522;7.682;2023-04-24T01:01:39;11.20;99.90
11650;DHT22;5881;48.522;7.682;2023-04-24T01:04:07;11.20;99.90
11650;DHT22;5881;48.522;7.682;2023-04-24T01:06:34;11.10;99.90
11650;DHT22;5881;48.522;7.682;2023-04-24T01:09:00;11.10;99.90
11650;DHT22;5881;48.522;7.682;2023-04-24T01:11:26;11.10;99.90
11650;DHT22;5881;48.522;7.682;2023-04-24T01:13:52;11.10;99.90
11650;DHT22;5881;48.522;7.682;2023-04-24T01:16:18;11.10;99.90
11650;DHT22;5881;48.522;7.682;2023-04-24T01:18:46;11.10;99.90
11650;DHT22;5881;48.522;7.682;2023-04-24T01:21:14;11.10;99.90
11650;DHT22;5881;48.522;7.682;2023-04-24T01:23:43;11.10;99.90
11650;DHT22;5881;48.522;7.682;2023-04-24T01:26:08;11.10;99.90
11650;DHT22;5881;48.522;7.682;2023-04-24T01:28:34;11.00;99.90
11650;DHT22;5881;48.522;7.682;2023-04-24T01:31:00;11.10;99.90
11650;DHT22;5881;48.522;7.682;2023-04-24T01:33:25;11.00;99.90
11650;DHT22;5881;48.522;7.682;2023-04-24T01:35:51;11.10;99.90
11650;DHT22;5881;48.522;7.682;2023-04-24T01:38:17;11.10;99.90
11650;DHT22;5881;48.522;7.682;2023-04-24T01:40:43;11.10;99.90
11650;DHT22;5881;48.522;7.682;2023-04-24T01:43:09;11.10;99.90
11650;DHT22;5881;48.522;7.682;2023-04-24T01:45:34;11.10;99.90
11650;DHT22;5881;48.522;7.682;2023-04-24T01:48:00;11.10;99.90
11650;DHT22;5881;48.522;7.682;2023-04-24T01:50:26;11.00;99.90
11650;DHT22;5881;48.522;7.682;2023-04-24T01:52:52;11.00;99.90
11650;DHT22;5881;48.522;7.682;2023-04-24T01:55:18;11.00;99.90
11650;DHT22;5881;48.522;7.682;2023-04-24T01:57:43;11.00;99.90
11650;DHT22;5881;48.522;7.682;2023-04-24T02:00:10;10.90;99.90
11650;DHT22;5881;48.522;7.682;2023-04-24T02:02:38;10.90;99.90
11650;DHT22;5881;48.522;7.682;2023-04-24T02:05:06;10.90;99.90
11650;DHT22;5881;48.522;7.682;2023-04-24T02:07:32;10.80;99.90
11650;DHT22;5881;48.522;7.682;2023-04-24T02:09:58;10.90;99.90
11650;DHT22;5881;48.522;7.682;2023-04-24T02:12:24;10.80;99.90
11650;DHT22;5881;48.522;7.682;2023-04-24T02:14:49;10.70;99.90
11650;DHT22;5881;48.522;7.682;2023-04-24T02:17:15;10.70;99.90
11650;DHT22;5881;48.522;7.682;2023-04-24T02:19:41;10.70;99.90
11650;DHT22;5881;48.522;7.682;2023-04-24T02:22:07;10.80;99.90
11650;DHT22;5881;48.522;7.682;2023-04-24T02:24:32;10.80;99.90
11650;DHT22;5881;48.522;7.682;2023-04-24T02:26:58;10.90;99.90
11650;DHT22;5881;48.522;7.682;2023-04-24T02:29:24;10.90;99.90
11650;DHT22;5881;48.522;7.682;2023-04-24T02:31:49;11.00;99.90
11650;DHT22;5881;48.522;7.682;2023-04-24T02:34:15;11.00;99.90
11650;DHT22;5881;48.522;7.682;2023-04-24T02:36:41;11.00;99.90
11650;DHT22;5881;48.522;7.682;2023-04-24T02:39:07;11.00;99.90
11650;DHT22;5881;48.522;7.682;2023-04-24T02:41:33;11.00;99.90
11650;DHT22;5881;48.522;7.682;2023-04-24T02:43:59;10.90;99.90
11650;DHT22;5881;48.522;7.682;2023-04-24T02:46:25;11.00;99.90
11650;DHT22;5881;48.522;7.682;2023-04-24T02:48:50;10.90;99.90
11650;DHT22;5881;48.522;7.682;2023-04-24T02:51:16;10.90;99.90
11650;DHT22;5881;48.522;7.682;2023-04-24T02:53:42;10.90;99.90
11650;DHT22;5881;48.522;7.682;2023-04-24T02:56:07;10.90;99.90
11650;DHT22;5881;48.522;7.682;2023-04-24T02:58:33;11.00;99.90
11650;DHT22;5881;48.522;7.682;2023-04-24T03:00:59;11.00;99.90
11650;DHT22;5881;48.522;7.682;2023-04-24T03:03:25;11.00;99.90
11650;DHT22;5881;48.522;7.682;2023-04-24T03:05:51;11.00;99.90
11650;DHT22;5881;48.522;7.682;2023-04-24T03:08:17;11.00;99.90
11650;DHT22;5881;48.522;7.682;2023-04-24T03:10:43;11.00;99.90
11650;DHT22;5881;48.522;7.682;2023-04-24T03:13:08;11.00;99.90
11650;DHT22;5881;48.522;7.682;2023-04-24T03:15:34;10.90;99.90
11650;DHT22;5881;48.522;7.682;2023-04-24T03:18:00;11.00;99.90
11650;DHT22;5881;48.522;7.682;2023-04-24T03:20:26;11.00;99.90
11650;DHT22;5881;48.522;7.682;2023-04-24T03:22:51;10.90;99.90
11650;DHT22;5881;48.522;7.682;2023-04-24T03:25:17;10.90;99.90
11650;DHT22;5881;48.522;7.682;2023-04-24T03:27:43;10.90;99.90
11650;DHT22;5881;48.522;7.682;2023-04-24T03:30:08;10.80;99.90
11650;DHT22;5881;48.522;7.682;2023-04-24T03:32:34;10.70;99.90
11650;DHT22;5881;48.522;7.682;2023-04-24T03:35:00;10.60;99.90
11650;DHT22;5881;48.522;7.682;2023-04-24T03:37:25;10.60;99.90
11650;DHT22;5881;48.522;7.682;2023-04-24T03:39:52;10.40;99.90
11650;DHT22;5881;48.522;7.682;2023-04-24T03:42:17;10.40;99.90
11650;DHT22;5881;48.522;7.682;2023-04-24T03:44:43;10.20;99.90
11650;DHT22;5881;48.522;7.682;2023-04-24T03:47:09;10.10;99.90
11650;DHT22;5881;48.522;7.682;2023-04-24T03:49:34;10.20;99.90
11650;DHT22;5881;48.522;7.682;2023-04-24T03:52:00;10.10;99.90
11650;DHT22;5881;48.522;7.682;2023-04-24T03:54:26;10.10;99.90
11650;DHT22;5881;48.522;7.682;2023-04-24T03:56:51;10.00;99.90
11650;DHT22;5881;48.522;7.682;2023-04-24T03:59:17;9.80;99.90
11650;DHT22;5881;48.522;7.682;2023-04-24T04:01:42;9.70;99.90
11650;DHT22;5881;48.522;7.682;2023-04-24T04:04:08;9.60;99.90
11650;DHT22;5881;48.522;7.682;2023-04-24T04:06:34;9.60;99.90
11650;DHT22;5881;48.522;7.682;2023-04-24T04:09:01;9.50;99.90
11650;DHT22;5881;48.522;7.682;2023-04-24T04:11:27;9.30;99.90
11650;DHT22;5881;48.522;7.682;2023-04-24T04:13:52;9.30;99.90
11650;DHT22;5881;48.522;7.682;2023-04-24T04:16:18;9.20;99.90
11650;DHT22;5881;48.522;7.682;2023-04-24T04:18:44;9.30;99.90
11650;DHT22;5881;48.522;7.682;2023-04-24T04:21:11;9.40;99.90
11650;DHT22;5881;48.522;7.682;2023-04-24T04:23:36;9.40;99.90
11650;DHT22;5881;48.522;7.682;2023-04-24T04:26:03;9.50;99.90
11650;DHT22;5881;48.522;7.682;2023-04-24T04:28:29;9.60;99.90
11650;DHT22;5881;48.522;7.682;2023-04-24T04:30:57;9.80;99.90
11650;DHT22;5881;48.522;7.682;2023-04-24T04:33:26;9.60;99.90
11650;DHT22;5881;48.522;7.682;2023-04-24T04:35:52;9.70;99.90
11650;DHT22;5881;48.522;7.682;2023-04-24T04:38:20;9.70;99.90
11650;DHT22;5881;48.522;7.682;2023-04-24T04:40:46;9.70;99.90
11650;DHT22;5881;48.522;7.682;2023-04-24T04:43:12;9.80;99.90
11650;DHT22;5881;48.522;7.682;2023-04-24T04:45:40;9.90;99.90
11650;DHT22;5881;48.522;7.682;2023-04-24T04:48:07;9.90;99.90
11650;DHT22;5881;48.522;7.682;2023-04-24T04:50:34;9.90;99.90
11650;DHT22;5881;48.522;7.682;2023-04-24T04:53:00;9.90;99.90
11650;DHT22;5881;48.522;7.682;2023-04-24T04:55:26;10.00;99.90
11650;DHT22;5881;48.522;7.682;2023-04-24T04:57:51;10.00;99.90
11650;DHT22;5881;48.522;7.682;2023-04-24T05:00:17;10.00;99.90
11650;DHT22;5881;48.522;7.682;2023-04-24T05:02:43;10.00;99.90
11650;DHT22;5881;48.522;7.682;2023-04-24T05:05:09;10.00;99.90
11650;DHT22;5881;48.522;7.682;2023-04-24T05:07:35;10.00;99.90
11650;DHT22;5881;48.522;7.682;2023-04-24T05:10:01;10.00;99.90
11650;DHT22;5881;48.522;7.682;2023-04-24T05:12:26;10.00;99.90
11650;DHT22;5881;48.522;7.682;2023-04-24T05:14:52;10.00;99.90
11650;DHT22;5881;48.522;7.682;2023-04-24T05:17:18;10.10;99.90
11650;DHT22;5881;48.522;7.682;2023-04-24T05:19:44;10.00;99.90
11650;DHT22;5881;48.522;7.682;2023-04-24T05:22:10;10.00;99.90
11650;DHT22;5881;48.522;7.682;2023-04-24T05:24:37;10.10;99.90
11650;DHT22;5881;48.522;7.682;2023-04-24T05:27:03;10.30;99.90
11650;DHT22;5881;48.522;7.682;2023-04-24T05:29:30;10.30;99.90
11650;DHT22;5881;48.522;7.682;2023-04-24T05:31:59;10.20;99.90
11650;DHT22;5881;48.522;7.682;2023-04-24T05:34:25;10.20;99.90
11650;DHT22;5881;48.522;7.682;2023-04-24T05:36:52;10.30;99.90
11650;DHT22;5881;48.522;7.682;2023-04-24T05:39:17;10.20;99.90
11650;DHT22;5881;48.522;7.682;2023-04-24T05:41:43;10.10;99.90
11650;DHT22;5881;48.522;7.682;2023-04-24T05:44:09;10.20;99.90
11650;DHT22;5881;48.522;7.682;2023-04-24T05:46:35;10.30;99.90
11650;DHT22;5881;48.522;7.682;2023-04-24T05:49:00;10.40;99.90
11650;DHT22;5881;48.522;7.682;2023-04-24T05:51:26;10.50;99.90
11650;DHT22;5881;48.522;7.682;2023-04-24T05:53:52;10.70;99.90
11650;DHT22;5881;48.522;7.682;2023-04-24T05:56:18;10.90;99.90
11650;DHT22;5881;48.522;7.682;2023-04-24T05:58:45;11.30;99.90
11650;DHT22;5881;48.522;7.682;2023-04-24T06:01:10;11.70;99.90
11650;DHT22;5881;48.522;7.682;2023-04-24T06:03:37;13.20;94.50
11650;DHT22;5881;48.522;7.682;2023-04-24T06:06:03;14.30;16.70
11650;DHT22;5881;48.522;7.682;2023-04-24T06:08:28;14.60;9.80
11650;DHT22;5881;48.522;7.682;2023-04-24T06:10:54;14.80;1.00
11650;DHT22;5881;48.522;7.682;2023-04-24T06:13:20;15.40;1.00
11650;DHT22;5881;48.522;7.682;2023-04-24T06:15:45;15.90;1.00
11650;DHT22;5881;48.522;7.682;2023-04-24T06:18:11;16.30;1.00
11650;DHT22;5881;48.522;7.682;2023-04-24T06:20:38;16.10;1.00
11650;DHT22;5881;48.522;7.682;2023-04-24T06:23:04;16.30;1.00
11650;DHT22;5881;48.522;7.682;2023-04-24T06:25:29;17.00;1.00
11650;DHT22;5881;48.522;7.682;2023-04-24T06:27:56;16.60;1.00
11650;DHT22;5881;48.522;7.682;2023-04-24T06:30:22;16.30;1.00
11650;DHT22;5881;48.522;7.682;2023-04-24T06:32:47;15.50;1.00
11650;DHT22;5881;48.522;7.682;2023-04-24T06:35:13;14.80;1.00
11650;DHT22;5881;48.522;7.682;2023-04-24T06:37:41;14.80;1.00
11650;DHT22;5881;48.522;7.682;2023-04-24T06:40:08;14.30;1.00
11650;DHT22;5881;48.522;7.682;2023-04-24T06:42:33;14.30;1.00
11650;DHT22;5881;48.522;7.682;2023-04-24T06:45:00;14.20;1.00
11650;DHT22;5881;48.522;7.682;2023-04-24T06:47:26;14.60;1.00
11650;DHT22;5881;48.522;7.682;2023-04-24T06:49:52;14.50;1.00
11650;DHT22;5881;48.522;7.682;2023-04-24T06:52:18;14.30;1.00
11650;DHT22;5881;48.522;7.682;2023-04-24T06:54:44;13.70;1.00
11650;DHT22;5881;48.522;7.682;2023-04-24T06:57:10;12.90;1.00
11650;DHT22;5881;48.522;7.682;2023-04-24T06:59:36;12.80;1.00
11650;DHT22;5881;48.522;7.682;2023-04-24T07:02:02;12.60;1.00
11650;DHT22;5881;48.522;7.682;2023-04-24T07:04:28;12.30;1.00
11650;DHT22;5881;48.522;7.682;2023-04-24T07:06:54;12.00;1.00
11650;DHT22;5881;48.522;7.682;2023-04-24T07:09:22;11.80;1.00
11650;DHT22;5881;48.522;7.682;2023-04-24T07:11:49;11.90;1.00
11650;DHT22;5881;48.522;7.682;2023-04-24T07:14:15;11.80;1.00
11650;DHT22;5881;48.522;7.682;2023-04-24T07:16:42;11.80;1.00
11650;DHT22;5881;48.522;7.682;2023-04-24T07:19:07;11.60;1.00
11650;DHT22;5881;48.522;7.682;2023-04-24T07:21:33;11.50;1.00
11650;DHT22;5881;48.522;7.682;2023-04-24T07:23:58;11.60;1.00
11650;DHT22;5881;48.522;7.682;2023-04-24T07:26:25;11.50;1.00
11650;DHT22;5881;48.522;7.682;2023-04-24T07:28:51;11.50;1.00
11650;DHT22;5881;48.522;7.682;2023-04-24T07:31:17;11.50;1.00
11650;DHT22;5881;48.522;7.682;2023-04-24T07:33:42;11.60;1.00
11650;DHT22;5881;48.522;7.682;2023-04-24T07:36:08;11.80;1.00
11650;DHT22;5881;48.522;7.682;2023-04-24T07:38:41;12.10;1.00
11650;DHT22;5881;48.522;7.682;2023-04-24T07:41:06;14.30;1.00
11650;DHT22;5881;48.522;7.682;2023-04-24T07:43:32;13.20;1.00
11650;DHT22;5881;48.522;7.682;2023-04-24T07:45:57;13.00;1.00
11650;DHT22;5881;48.522;7.682;2023-04-24T07:48:23;12.70;1.00
11650;DHT22;5881;48.522;7.682;2023-04-24T07:50:51;12.30;1.00
11650;DHT22;5881;48.522;7.682;2023-04-24T07:53:17;12.30;1.00
11650;DHT22;5881;48.522;7.682;2023-04-24T07:55:42;12.50;1.00
11650;DHT22;5881;48.522;7.682;2023-04-24T07:58:08;12.60;1.00
11650;DHT22;5881;48.522;7.682;2023-04-24T08:00:34;12.30;1.00
11650;DHT22;5881;48.522;7.682;2023-04-24T08:03:00;12.10;1.00
11650;DHT22;5881;48.522;7.682;2023-04-24T08:05:25;12.10;1.00
11650;DHT22;5881;48.522;7.682;2023-04-24T08:07:52;11.90;1.00
11650;DHT22;5881;48.522;7.682;2023-04-24T08:10:18;12.10;1.00
11650;DHT22;5881;48.522;7.682;2023-04-24T08:12:44;11.90;1.00
11650;DHT22;5881;48.522;7.682;2023-04-24T08:15:10;12.00;1.00
11650;DHT22;5881;48.522;7.682;2023-04-24T08:17:36;12.00;1.00
11650;DHT22;5881;48.522;7.682;2023-04-24T08:20:03;12.00;1.00
11650;DHT22;5881;48.522;7.682;2023-04-24T08:22:30;12.10;1.00
11650;DHT22;5881;48.522;7.682;2023-04-24T08:24:56;12.00;1.00
11650;DHT22;5881;48.522;7.682;2023-04-24T08:27:26;12.00;1.00
11650;DHT22;5881;48.522;7.682;2023-04-24T08:29:53;11.80;1.00
11650;DHT22;5881;48.522;7.682;2023-04-24T08:32:19;11.80;1.00
11650;DHT22;5881;48.522;7.682;2023-04-24T08:34:44;11.70;1.00
11650;DHT22;5881;48.522;7.682;2023-04-24T08:37:10;11.80;1.00
11650;DHT22;5881;48.522;7.682;2023-04-24T08:39:36;11.80;1.00
11650;DHT22;5881;48.522;7.682;2023-04-24T08:42:04;12.10;1.00
11650;DHT22;5881;48.522;7.682;2023-04-24T08:44:33;12.30;1.00
11650;DHT22;5881;48.522;7.682;2023-04-24T08:47:01;12.20;1.00
11650;DHT22;5881;48.522;7.682;2023-04-24T08:49:28;12.30;1.00
11650;DHT22;5881;48.522;7.682;2023-04-24T08:51:54;12.20;1.00
11650;DHT22;5881;48.522;7.682;2023-04-24T08:54:20;12.10;1.00
11650;DHT22;5881;48.522;7.682;2023-04-24T08:56:47;11.80;1.00
11650;DHT22;5881;48.522;7.682;2023-04-24T08:59:14;11.90;1.00
11650;DHT22;5881;48.522;7.682;2023-04-24T09:01:40;12.10;1.00
11650;DHT22;5881;48.522;7.682;2023-04-24T09:04:08;12.10;1.00
11650;DHT22;5881;48.522;7.682;2023-04-24T09:06:35;12.70;1.00
11650;DHT22;5881;48.522;7.682;2023-04-24T09:09:02;13.30;1.00
11650;DHT22;5881;48.522;7.682;2023-04-24T09:11:30;12.90;1.00
11650;DHT22;5881;48.522;7.682;2023-04-24T09:13:56;12.90;1.00
11650;DHT22;5881;48.522;7.682;2023-04-24T09:16:22;12.40;1.00
11650;DHT22;5881;48.522;7.682;2023-04-24T09:18:50;12.20;1.00
11650;DHT22;5881;48.522;7.682;2023-04-24T09:21:15;12.50;1.00
11650;DHT22;5881;48.522;7.682;2023-04-24T09:23:41;12.00;1.00
11650;DHT22;5881;48.522;7.682;2023-04-24T09:26:09;12.10;1.00
11650;DHT22;5881;48.522;7.682;2023-04-24T09:28:36;11.90;1.00
11650;DHT22;5881;48.522;7.682;2023-04-24T09:31:13;11.90;1.00
11650;DHT22;5881;48.522;7.682;2023-04-24T09:33:40;11.90;1.00
11650;DHT22;5881;48.522;7.682;2023-04-24T09:36:06;11.80;1.00
11650;DHT22;5881;48.522;7.682;2023-04-24T09:38:36;12.00;1.00
11650;DHT22;5881;48.522;7.682;2023-04-24T09:41:04;12.10;1.00
11650;DHT22;5881;48.522;7.682;2023-04-24T09:43:31;12.20;1.00
11650;DHT22;5881;48.522;7.682;2023-04-24T09:45:58;12.50;1.00
11650;DHT22;5881;48.522;7.682;2023-04-24T09:48:34;12.50;1.00
11650;DHT22;5881;48.522;7.682;2023-04-24T09:51:01;12.30;1.00
11650;DHT22;5881;48.522;7.682;2023-04-24T09:53:28;12.20;1.00
11650;DHT22;5881;48.522;7.682;2023-04-24T09:55:54;12.50;1.00
11650;DHT22;5881;48.522;7.682;2023-04-24T09:58:27;12.70;1.00
11650;DHT22;5881;48.522;7.682;2023-04-24T10:00:54;13.00;1.00
11650;DHT22;5881;48.522;7.682;2023-04-24T10:03:21;14.30;1.00
11650;DHT22;5881;48.522;7.682;2023-04-24T10:05:48;14.20;1.00
11650;DHT22;5881;48.522;7.682;2023-04-24T10:08:16;14.40;1.00
11650;DHT22;5881;48.522;7.682;2023-04-24T10:10:46;14.30;1.00
11650;DHT22;5881;48.522;7.682;2023-04-24T10:13:13;13.60;1.00
11650;DHT22;5881;48.522;7.682;2023-04-24T10:15:39;13.50;1.00
11650;DHT22;5881;48.522;7.682;2023-04-24T10:18:06;14.90;1.00
11650;DHT22;5881;48.522;7.682;2023-04-24T10:20:32;14.60;1.00
11650;DHT22;5881;48.522;7.682;2023-04-24T10:22:59;14.10;1.00
11650;DHT22;5881;48.522;7.682;2023-04-24T10:25:35;13.20;1.00
11650;DHT22;5881;48.522;7.682;2023-04-24T10:28:02;12.90;1.00
11650;DHT22;5881;48.522;7.682;2023-04-24T10:30:30;12.60;1.00
11650;DHT22;5881;48.522;7.682;2023-04-24T10:32:56;12.70;1.00
11650;DHT22;5881;48.522;7.682;2023-04-24T10:35:22;12.70;1.00
11650;DHT22;5881;48.522;7.682;2023-04-24T10:37:59;12.70;1.00
11650;DHT22;5881;48.522;7.682;2023-04-24T10:40:31;12.60;1.00
11650;DHT22;5881;48.522;7.682;2023-04-24T10:42:58;12.80;1.00
11650;DHT22;5881;48.522;7.682;2023-04-24T10:45:24;12.80;1.00
11650;DHT22;5881;48.522;7.682;2023-04-24T10:50:18;13.00;1.00
11650;DHT22;5881;48.522;7.682;2023-04-24T10:52:48;13.10;1.00
11650;DHT22;5881;48.522;7.682;2023-04-24T10:55:29;13.20;1.00
11650;DHT22;5881;48.522;7.682;2023-04-24T10:58:03;13.40;1.00
11650;DHT22;5881;48.522;7.682;2023-04-24T11:00:29;13.70;1.00
11650;DHT22;5881;48.522;7.682;2023-04-24T11:02:55;14.80;1.00
11650;DHT22;5881;48.522;7.682;2023-04-24T11:05:21;15.90;1.00
11650;DHT22;5881;48.522;7.682;2023-04-24T11:08:10;15.80;1.00
11650;DHT22;5881;48.522;7.682;2023-04-24T11:10:44;16.10;1.00
11650;DHT22;5881;48.522;7.682;2023-04-24T11:13:10;16.20;1.00
11650;DHT22;5881;48.522;7.682;2023-04-24T11:15:41;15.80;1.00
11650;DHT22;5881;48.522;7.682;2023-04-24T11:18:13;15.10;1.00
11650;DHT22;5881;48.522;7.682;2023-04-24T11:20:42;14.60;1.00
11650;DHT22;5881;48.522;7.682;2023-04-24T11:23:08;14.40;1.00
11650;DHT22;5881;48.522;7.682;2023-04-24T11:25:35;14.20;1.00
11650;DHT22;5881;48.522;7.682;2023-04-24T11:28:05;14.20;1.00
11650;DHT22;5881;48.522;7.682;2023-04-24T11:30:31;13.90;1.00
11650;DHT22;5881;48.522;7.682;2023-04-24T11:33:02;13.90;1.00
11650;DHT22;5881;48.522;7.682;2023-04-24T11:35:29;13.60;1.00
11650;DHT22;5881;48.522;7.682;2023-04-24T11:37:56;13.80;1.00
11650;DHT22;5881;48.522;7.682;2023-04-24T11:40:22;13.60;1.00
11650;DHT22;5881;48.522;7.682;2023-04-24T11:42:52;13.40;1.00
11650;DHT22;5881;48.522;7.682;2023-04-24T11:45:23;13.30;1.00
11650;DHT22;5881;48.522;7.682;2023-04-24T11:47:49;13.10;1.00
11650;DHT22;5881;48.522;7.682;2023-04-24T11:50:22;13.00;1.00
11650;DHT22;5881;48.522;7.682;2023-04-24T11:52:49;12.90;1.00
11650;DHT22;5881;48.522;7.682;2023-04-24T11:57:44;13.30;1.00
11650;DHT22;5881;48.522;7.682;2023-04-24T12:00:16;13.30;1.00
11650;DHT22;5881;48.522;7.682;2023-04-24T12:02:42;13.30;1.00
11650;DHT22;5881;48.522;7.682;2023-04-24T12:05:08;13.30;1.00
11650;DHT22;5881;48.522;7.682;2023-04-24T12:07:41;13.20;1.00
11650;DHT22;5881;48.522;7.682;2023-04-24T12:10:10;13.10;1.00
11650;DHT22;5881;48.522;7.682;2023-04-24T12:12:35;13.10;1.00
11650;DHT22;5881;48.522;7.682;2023-04-24T12:15:06;13.10;1.00
11650;DHT22;5881;48.522;7.682;2023-04-24T12:17:33;13.20;1.00
11650;DHT22;5881;48.522;7.682;2023-04-24T12:19:59;13.60;1.00
11650;DHT22;5881;48.522;7.682;2023-04-24T12:22:26;13.80;1.00
11650;DHT22;5881;48.522;7.682;2023-04-24T12:24:56;13.80;1.00
11650;DHT22;5881;48.522;7.682;2023-04-24T12:27:22;13.80;1.00
11650;DHT22;5881;48.522;7.682;2023-04-24T12:29:57;13.80;1.00
11650;DHT22;5881;48.522;7.682;2023-04-24T12:32:24;13.50;1.00
11650;DHT22;5881;48.522;7.682;2023-04-24T12:34:53;13.50;1.00
11650;DHT22;5881;48.522;7.682;2023-04-24T12:37:21;13.70;1.00
11650;DHT22;5881;48.522;7.682;2023-04-24T12:40:10;13.70;1.00
11650;DHT22;5881;48.522;7.682;2023-04-24T12:42:42;13.40;1.00
11650;DHT22;5881;48.522;7.682;2023-04-24T12:45:08;13.40;1.00
11650;DHT22;5881;48.522;7.682;2023-04-24T12:47:34;13.50;1.00
11650;DHT22;5881;48.522;7.682;2023-04-24T12:50:01;13.30;1.00
11650;DHT22;5881;48.522;7.682;2023-04-24T12:52:29;13.20;1.00
11650;DHT22;5881;48.522;7.682;2023-04-24T12:54:56;13.10;1.00
11650;DHT22;5881;48.522;7.682;2023-04-24T12:57:28;13.20;1.00
11650;DHT22;5881;48.522;7.682;2023-04-24T12:59:55;13.30;1.00
11650;DHT22;5881;48.522;7.682;2023-04-24T13:02:22;13.50;1.00
11650;DHT22;5881;48.522;7.682;2023-04-24T13:04:49;13.70;1.00
11650;DHT22;5881;48.522;7.682;2023-04-24T13:07:15;13.80;1.00
11650;DHT22;5881;48.522;7.682;2023-04-24T13:09:41;13.80;1.00
11650;DHT22;5881;48.522;7.682;2023-04-24T13:12:08;14.00;1.00
11650;DHT22;5881;48.522;7.682;2023-04-24T13:14:34;14.10;1.00
11650;DHT22;5881;48.522;7.682;2023-04-24T13:17:00;14.00;1.00
11650;DHT22;5881;48.522;7.682;2023-04-24T13:19:26;14.00;1.00
11650;DHT22;5881;48.522;7.682;2023-04-24T13:21:56;13.60;1.00
11650;DHT22;5881;48.522;7.682;2023-04-24T13:24:23;13.50;1.00
11650;DHT22;5881;48.522;7.682;2023-04-24T13:26:52;13.40;1.00
11650;DHT22;5881;48.522;7.682;2023-04-24T13:29:18;13.50;1.00
11650;DHT22;5881;48.522;7.682;2023-04-24T13:31:43;13.80;1.00
11650;DHT22;5881;48.522;7.682;2023-04-24T13:34:09;13.70;1.00
11650;DHT22;5881;48.522;7.682;2023-04-24T13:36:35;14.20;1.00
11650;DHT22;5881;48.522;7.682;2023-04-24T13:39:02;14.60;1.00
11650;DHT22;5881;48.522;7.682;2023-04-24T13:41:29;14.60;1.00
11650;DHT22;5881;48.522;7.682;2023-04-24T13:43:55;14.50;1.00
11650;DHT22;5881;48.522;7.682;2023-04-24T13:46:21;14.70;1.00
11650;DHT22;5881;48.522;7.682;2023-04-24T13:48:46;14.80;1.00
11650;DHT22;5881;48.522;7.682;2023-04-24T13:51:12;14.70;1.00
11650;DHT22;5881;48.522;7.682;2023-04-24T13:53:38;15.00;1.00
11650;DHT22;5881;48.522;7.682;2023-04-24T13:56:04;14.80;1.00
11650;DHT22;5881;48.522;7.682;2023-04-24T13:58:31;14.60;1.00
11650;DHT22;5881;48.522;7.682;2023-04-24T14:00:57;14.50;1.00
11650;DHT22;5881;48.522;7.682;2023-04-24T14:03:23;14.60;1.00
11650;DHT22;5881;48.522;7.682;2023-04-24T14:05:49;14.80;1.00
11650;DHT22;5881;48.522;7.682;2023-04-24T14:08:15;14.80;1.00
11650;DHT22;5881;48.522;7.682;2023-04-24T14:10:40;14.80;1.00
11650;DHT22;5881;48.522;7.682;2023-04-24T14:13:06;14.90;1.00
11650;DHT22;5881;48.522;7.682;2023-04-24T14:15:32;14.70;1.00
11650;DHT22;5881;48.522;7.682;2023-04-24T14:17:57;14.40;1.00
11650;DHT22;5881;48.522;7.682;2023-04-24T14:20:23;14.30;1.00
11650;DHT22;5881;48.522;7.682;2023-04-24T14:22:49;14.40;1.00
11650;DHT22;5881;48.522;7.682;2023-04-24T14:25:14;14.50;1.00
11650;DHT22;5881;48.522;7.682;2023-04-24T14:27:40;14.40;1.00
11650;DHT22;5881;48.522;7.682;2023-04-24T14:30:07;14.20;1.00
11650;DHT22;5881;48.522;7.682;2023-04-24T14:32:32;14.10;1.00
11650;DHT22;5881;48.522;7.682;2023-04-24T14:34:58;14.10;1.00
11650;DHT22;5881;48.522;7.682;2023-04-24T14:37:24;14.30;1.00
11650;DHT22;5881;48.522;7.682;2023-04-24T14:39:49;14.30;1.00
11650;DHT22;5881;48.522;7.682;2023-04-24T14:42:15;14.50;1.00
11650;DHT22;5881;48.522;7.682;2023-04-24T14:44:42;14.40;1.00
11650;DHT22;5881;48.522;7.682;2023-04-24T14:47:08;14.10;1.00
11650;DHT22;5881;48.522;7.682;2023-04-24T14:49:33;14.10;1.00
11650;DHT22;5881;48.522;7.682;2023-04-24T14:51:59;14.40;1.00
11650;DHT22;5881;48.522;7.682;2023-04-24T14:54:25;14.40;1.00
11650;DHT22;5881;48.522;7.682;2023-04-24T14:56:51;14.60;1.00
11650;DHT22;5881;48.522;7.682;2023-04-24T14:59:16;14.50;1.00
11650;DHT22;5881;48.522;7.682;2023-04-24T15:01:42;15.20;1.00
11650;DHT22;5881;48.522;7.682;2023-04-24T15:04:07;15.50;1.00
11650;DHT22;5881;48.522;7.682;2023-04-24T15:06:33;15.20;1.00
11650;DHT22;5881;48.522;7.682;2023-04-24T15:08:59;14.70;1.00
11650;DHT22;5881;48.522;7.682;2023-04-24T15:11:25;14.50;1.00
11650;DHT22;5881;48.522;7.682;2023-04-24T15:13:50;14.40;1.00
11650;DHT22;5881;48.522;7.682;2023-04-24T15:16:16;14.30;1.00
11650;DHT22;5881;48.522;7.682;2023-04-24T15:18:42;14.10;1.00
11650;DHT22;5881;48.522;7.682;2023-04-24T15:21:07;14.10;1.00
11650;DHT22;5881;48.522;7.682;2023-04-24T15:23:33;14.10;1.00
11650;DHT22;5881;48.522;7.682;2023-04-24T15:25:59;14.00;1.00
11650;DHT22;5881;48.522;7.682;2023-04-24T15:28:25;14.10;1.00
11650;DHT22;5881;48.522;7.682;2023-04-24T15:30:50;14.10;1.00
11650;DHT22;5881;48.522;7.682;2023-04-24T15:33:16;14.10;1.00
11650;DHT22;5881;48.522;7.682;2023-04-24T15:35:42;14.00;1.00
11650;DHT22;5881;48.522;7.682;2023-04-24T15:38:07;14.10;1.00
11650;DHT22;5881;48.522;7.682;2023-04-24T15:40:33;14.10;1.00
11650;DHT22;5881;48.522;7.682;2023-04-24T15:42:59;14.20;1.00
11650;DHT22;5881;48.522;7.682;2023-04-24T15:45:25;14.30;1.00
11650;DHT22;5881;48.522;7.682;2023-04-24T15:47:51;14.40;1.00
11650;DHT22;5881;48.522;7.682;2023-04-24T15:50:17;14.40;1.00
11650;DHT22;5881;48.522;7.682;2023-04-24T15:52:43;14.10;1.00
11650;DHT22;5881;48.522;7.682;2023-04-24T15:55:10;13.90;1.00
11650;DHT22;5881;48.522;7.682;2023-04-24T15:57:35;13.90;1.00